Time;durP1;ratioP1;P1;durP2;ratioP2;P2;SDS_P1;SDS_P2;PMS_P1;PMS_P2;Temp;Humidity;BMP_temperature;BMP_pressure;BME280_temperature;BME280_humidity;BME280_pressure;Samples;Min_cycle;Max_cycle;Signal;HPM_P1;HPM_P2
2022/12/07 00:00:08;;;;;;;5.23;4.40;;;;;;;3.58;97.65;101201.56;6050252;29;20234;-78
2022/12/07 00:03:29;;;;;;;7.00;5.90;;;;;;;3.62;97.40;101192.47;6070624;29;20536;-79
2022/12/07 00:06:53;;;;;;;6.77;4.93;;;;;;;3.59;97.60;101175.78;6067821;29;20531;-79
2022/12/07 00:10:15;;;;;;;5.17;4.67;;;;;;;3.61;97.45;101182.72;6055350;29;20229;-79
2022/12/07 00:13:37;;;;;;;5.17;3.33;;;;;;;3.68;97.38;101177.94;6072049;29;20312;-79
2022/12/07 00:16:58;;;;;;;6.27;4.97;;;;;;;3.70;97.16;101170.69;6063221;29;20233;-78
2022/12/07 00:20:19;;;;;;;4.40;3.97;;;;;;;3.82;97.01;101167.34;6058701;29;20327;-78
2022/12/07 00:23:42;;;;;;;8.67;6.33;;;;;;;3.78;96.81;101163.13;6078519;29;20279;-78
2022/12/07 00:27:04;;;;;;;6.30;4.63;;;;;;;3.80;96.60;101159.44;6066834;29;20233;-78
2022/12/07 00:30:25;;;;;;;7.70;5.43;;;;;;;3.79;97.16;101160.41;6051373;29;20636;-79
2022/12/07 00:33:47;;;;;;;6.20;4.33;;;;;;;3.76;97.12;101149.03;6066507;29;20250;-79
2022/12/07 00:37:08;;;;;;;7.17;5.00;;;;;;;3.72;97.41;101148.34;6062337;29;20228;-79
2022/12/07 00:40:29;;;;;;;5.97;4.00;;;;;;;3.76;97.44;101146.38;6062291;29;20256;-77
2022/12/07 00:43:52;;;;;;;6.70;4.90;;;;;;;3.80;97.35;101145.25;6056813;29;20237;-79
2022/12/07 00:47:13;;;;;;;6.73;5.67;;;;;;;3.83;97.37;101140.63;6062477;29;20320;-79
2022/12/07 00:50:34;;;;;;;5.17;4.67;;;;;;;3.79;97.01;101136.41;6064429;29;20233;-78
2022/12/07 00:53:55;;;;;;;7.10;5.17;;;;;;;3.90;96.99;101138.47;6058743;29;20253;-78
2022/12/07 00:57:19;;;;;;;5.17;4.70;;;;;;;3.81;97.13;101122.97;6065037;29;20603;-79
2022/12/07 01:00:43;;;;;;;10.20;4.93;;;;;;;3.77;97.79;101118.78;6058687;29;20229;-79
2022/12/07 01:04:05;;;;;;;4.73;3.57;;;;;;;3.81;97.52;101125.66;6056441;29;20274;-78
2022/12/07 01:07:26;;;;;;;4.47;4.07;;;;;;;3.77;97.50;101121.44;6042875;28;20225;-79
2022/12/07 01:10:47;;;;;;;6.37;4.97;;;;;;;3.75;97.82;101118.00;6061278;29;20619;-78
2022/12/07 01:14:09;;;;;;;5.40;4.43;;;;;;;3.72;98.12;101111.03;6060260;29;20230;-78
2022/12/07 01:17:32;;;;;;;4.53;3.97;;;;;;;3.72;98.36;101108.38;6058990;29;20230;-79
2022/12/07 01:21:01;;;;;;;8.23;4.63;;;;;;;3.70;97.88;101110.25;6066350;29;20984;-79
2022/12/07 01:24:22;;;;;;;5.57;3.50;;;;;;;3.67;98.31;101113.09;6060735;29;20241;-78
2022/12/07 01:27:43;;;;;;;5.03;4.60;;;;;;;3.65;98.07;101095.47;6066004;29;20255;-79
2022/12/07 01:31:07;;;;;;;4.63;4.07;;;;;;;3.67;98.13;101102.41;6065472;29;20329;-80
2022/12/07 01:34:30;;;;;;;5.03;3.73;;;;;;;3.63;97.95;101105.38;6060482;29;20245;-77
2022/12/07 01:37:51;;;;;;;4.03;3.20;;;;;;;3.67;97.72;101110.41;6062578;29;20237;-78
2022/12/07 01:41:13;;;;;;;8.07;4.67;;;;;;;3.71;97.62;101108.47;6063801;29;22146;-78
2022/12/07 01:45:08;;;;;;;6.77;4.13;;;;;;;3.68;98.17;101101.50;6062728;29;20233;-78
2022/12/07 01:48:33;;;;;;;4.97;4.47;;;;;;;3.68;97.50;101097.97;6062852;29;20241;-79
2022/12/07 01:52:02;;;;;;;4.93;4.10;;;;;;;3.72;97.92;101095.03;6060664;29;20233;-78
2022/12/07 01:55:24;;;;;;;4.97;3.83;;;;;;;3.71;97.56;101095.13;6060770;29;20237;-79
2022/12/07 01:58:46;;;;;;;5.07;4.57;;;;;;;3.76;97.76;101104.56;6073596;29;20253;-80
2022/12/07 02:02:16;;;;;;;4.20;3.80;;;;;;;3.71;97.47;101095.97;6057743;29;20234;-78
2022/12/07 02:05:41;;;;;;;5.73;3.47;;;;;;;3.66;97.95;101099.84;6057231;29;20320;-78
2022/12/07 02:09:05;;;;;;;7.37;4.20;;;;;;;3.64;97.87;101094.63;6059384;29;20237;-79
2022/12/07 02:12:27;;;;;;;6.30;4.37;;;;;;;3.59;97.69;101096.66;6060207;29;20619;-81
2022/12/07 02:16:07;;;;;;;5.20;3.77;;;;;;;3.58;97.81;101097.63;6058599;29;20233;-79
2022/12/07 02:20:05;;;;;;;4.27;3.60;;;;;;;3.58;97.75;101092.31;6058729;29;20313;-78
2022/12/07 02:23:42;;;;;;;4.70;3.20;;;;;;;3.57;97.77;101092.38;6062576;29;20315;-78
2022/12/07 02:27:38;;;;;;;3.60;2.27;;;;;;;3.61;97.39;101088.59;6060613;29;20332;-78
2022/12/07 02:31:08;;;;;;;3.80;3.50;;;;;;;3.56;97.41;101088.00;6041804;29;20857;-79
2022/12/07 02:34:40;;;;;;;3.37;2.67;;;;;;;3.51;97.55;101079.38;6058987;29;20627;-77
2022/12/07 02:38:11;;;;;;;4.13;2.97;;;;;;;3.49;97.12;101084.81;6067825;29;20241;-78
2022/12/07 02:41:36;;;;;;;4.93;2.67;;;;;;;3.52;97.36;101082.00;6050331;29;20424;-78
2022/12/07 02:44:59;;;;;;;3.70;2.50;;;;;;;3.50;96.66;101083.88;6059851;29;20241;-77
2022/12/07 02:48:22;;;;;;;2.30;2.10;;;;;;;3.61;95.75;101086.78;6040323;29;20226;-78
2022/12/07 02:51:46;;;;;;;2.90;2.70;;;;;;;3.60;95.67;101086.88;6055846;29;20220;-79
2022/12/07 02:55:09;;;;;;;1.93;1.80;;;;;;;3.72;94.98;101088.84;6062015;29;21027;-79
2022/12/07 02:58:42;;;;;;;1.80;1.70;;;;;;;3.74;94.23;101090.47;6060351;29;20506;-78
2022/12/07 03:02:20;;;;;;;2.53;1.53;;;;;;;3.72;94.39;101092.38;6054616;29;20320;-78
2022/12/07 03:05:57;;;;;;;1.77;1.63;;;;;;;3.64;93.81;101091.09;6047839;29;20531;-79
2022/12/07 03:09:27;;;;;;;2.27;1.33;;;;;;;3.66;93.91;101090.06;6062305;29;20237;-78
2022/12/07 03:12:59;;;;;;;3.53;2.03;;;;;;;3.59;93.98;101090.50;6062577;29;20832;-78
2022/12/07 03:16:23;;;;;;;5.80;2.43;;;;;;;3.54;93.73;101093.44;6049493;29;20232;-79
2022/12/07 03:19:47;;;;;;;1.23;1.20;;;;;;;3.59;93.90;101094.00;6063051;29;20234;-78
2022/12/07 03:23:11;;;;;;;1.13;1.10;;;;;;;3.50;93.95;101088.34;6071592;29;20613;-80
2022/12/07 03:26:36;;;;;;;2.37;1.50;;;;;;;3.49;93.63;101084.81;6057960;29;20256;-79
2022/12/07 03:30:01;;;;;;;2.87;1.53;;;;;;;3.49;93.59;101086.59;6063235;29;20241;-79
2022/12/07 03:33:28;;;;;;;2.13;2.03;;;;;;;3.44;93.60;101086.91;6045824;29;20485;-79
2022/12/07 03:36:53;;;;;;;3.93;1.80;;;;;;;3.44;93.50;101088.69;6054000;29;20503;-79
2022/12/07 03:40:23;;;;;;;1.70;1.60;;;;;;;3.43;93.45;101092.28;6058098;29;20300;-79
2022/12/07 03:43:45;;;;;;;1.00;0.83;;;;;;;3.37;93.29;101089.97;6060398;29;20237;-78
2022/12/07 03:47:12;;;;;;;3.00;1.43;;;;;;;3.39;93.45;101090.75;6058320;29;20605;-80
2022/12/07 03:50:42;;;;;;;1.10;1.03;;;;;;;3.37;93.54;101092.63;6049948;29;20237;-78
2022/12/07 03:54:11;;;;;;;0.73;0.60;;;;;;;3.36;93.05;101091.75;6068296;29;20241;-79
2022/12/07 03:57:34;;;;;;;0.93;0.87;;;;;;;3.37;93.49;101087.31;6063767;29;20327;-78
2022/12/07 04:00:56;;;;;;;1.30;1.00;;;;;;;3.31;93.33;101088.53;6055006;29;20228;-78
2022/12/07 04:04:20;;;;;;;0.70;0.70;;;;;;;3.29;93.46;101095.75;6069076;29;20237;-78
2022/12/07 04:07:42;;;;;;;0.80;0.80;;;;;;;3.28;93.71;101093.13;6071419;29;20232;-79
2022/12/07 04:11:03;;;;;;;2.50;1.20;;;;;;;3.28;93.25;101101.13;6059926;29;20606;-78
2022/12/07 04:14:25;;;;;;;1.33;0.90;;;;;;;3.24;93.43;101095.13;6063556;29;20267;-78
2022/12/07 04:17:46;;;;;;;0.83;0.83;;;;;;;3.20;93.13;101097.09;6067562;29;20257;-77
2022/12/07 04:21:08;;;;;;;1.00;0.93;;;;;;;3.17;93.64;101097.25;6054594;29;20236;-78
2022/12/07 04:24:29;;;;;;;3.90;1.30;;;;;;;3.12;93.71;101091.34;6076390;29;20233;-79
2022/12/07 04:27:50;;;;;;;1.93;0.90;;;;;;;3.12;93.40;101095.81;6065465;29;20568;-79
2022/12/07 04:31:14;;;;;;;1.00;0.90;;;;;;;3.15;93.26;101106.28;6056039;29;20647;-79
2022/12/07 04:34:35;;;;;;;1.63;1.50;;;;;;;3.18;92.89;101104.31;6070099;29;20237;-80
2022/12/07 04:37:56;;;;;;;5.03;1.30;;;;;;;3.18;92.55;101100.78;6068333;29;20502;-80
2022/12/07 04:41:17;;;;;;;2.20;1.23;;;;;;;3.12;92.58;101103.78;6056348;29;20232;-80
2022/12/07 04:44:38;;;;;;;1.60;0.77;;;;;;;3.03;92.79;101110.47;6066357;29;20229;-79
2022/12/07 04:48:00;;;;;;;1.40;1.10;;;;;;;3.08;92.66;101105.78;6066594;29;20230;-78
2022/12/07 04:51:23;;;;;;;1.00;0.87;;;;;;;3.06;92.32;101114.78;6060585;29;20602;-79
2022/12/07 04:54:44;;;;;;;1.00;1.00;;;;;;;3.03;92.59;101110.47;6068203;29;20801;-79
2022/12/07 04:58:05;;;;;;;0.80;0.80;;;;;;;2.94;92.84;101105.63;6068189;29;20236;-79
2022/12/07 05:01:26;;;;;;;1.87;1.73;;;;;;;3.00;92.79;101105.28;6058709;29;20506;-79
2022/12/07 05:04:48;;;;;;;1.83;1.27;;;;;;;3.03;92.79;101106.94;6070056;29;20229;-78
2022/12/07 05:08:09;;;;;;;1.07;0.97;;;;;;;3.03;92.52;101101.63;6066464;29;20238;-78
2022/12/07 05:11:39;;;;;;;2.30;1.90;;;;;;;3.01;92.39;101111.47;6060227;29;20678;-79
2022/12/07 05:15:01;;;;;;;2.00;1.90;;;;;;;2.94;92.30;101105.63;6060080;29;20233;-78
2022/12/07 05:18:22;;;;;;;1.77;1.07;;;;;;;2.98;92.47;101104.53;6055571;29;20237;-81
2022/12/07 05:21:45;;;;;;;2.53;1.37;;;;;;;3.00;92.21;101099.97;6062998;29;20229;-80
2022/12/07 05:25:06;;;;;;;0.97;0.97;;;;;;;3.06;92.12;101101.47;6063351;29;20528;-79
2022/12/07 05:28:27;;;;;;;0.93;0.93;;;;;;;3.08;91.79;101099.56;6059813;29;20256;-81
2022/12/07 05:31:48;;;;;;;2.27;1.20;;;;;;;3.05;91.78;101097.06;6056127;29;20685;-81
2022/12/07 05:35:09;;;;;;;0.87;0.87;;;;;;;3.09;91.31;101095.94;6071743;29;20241;-79
2022/12/07 05:38:32;;;;;;;1.37;1.33;;;;;;;3.10;91.48;101095.88;6065547;29;20237;-79
2022/12/07 05:45:31;;;;;;;1.60;1.30;;;;;;;3.01;90.75;101098.16;6050279;29;20234;-79
2022/12/07 05:48:53;;;;;;;2.47;1.10;;;;;;;3.05;91.27;101099.72;6072378;29;20655;-79
2022/12/07 05:52:14;;;;;;;2.40;1.93;;;;;;;3.06;90.94;101094.34;6059588;29;20328;-79
2022/12/07 05:55:36;;;;;;;1.70;1.43;;;;;;;3.03;90.46;101094.50;6046559;29;20324;-79
2022/12/07 06:02:35;;;;;;;1.57;1.47;;;;;;;2.96;90.53;101101.09;6049339;29;20232;-79
2022/12/07 06:05:56;;;;;;;1.60;1.50;;;;;;;3.01;90.38;101104.38;6046607;29;20237;-80
2022/12/07 06:09:18;;;;;;;2.70;1.37;;;;;;;2.99;90.13;101095.59;6065628;29;20237;-78
2022/12/07 06:12:42;;;;;;;1.27;1.17;;;;;;;3.02;90.09;101100.78;6061485;29;20234;-80
2022/12/07 06:16:03;;;;;;;1.23;1.20;;;;;;;2.89;89.93;101094.38;6049891;29;20316;-79
2022/12/07 06:19:24;;;;;;;2.10;1.50;;;;;;;2.85;90.18;101092.84;6060958;29;20403;-79
2022/12/07 06:22:45;;;;;;;1.43;1.33;;;;;;;2.89;90.36;101091.72;6063183;29;20241;-79
2022/12/07 06:26:06;;;;;;;4.07;1.47;;;;;;;2.85;90.57;101084.84;6056102;29;20316;-78
2022/12/07 06:29:28;;;;;;;4.47;1.93;;;;;;;2.78;90.63;101086.09;6067236;29;20233;-80
2022/12/07 06:32:49;;;;;;;1.37;1.27;;;;;;;2.79;90.86;101087.84;6060161;29;21159;-79
2022/12/07 06:36:11;;;;;;;1.53;1.33;;;;;;;2.75;91.29;101088.94;6056880;29;20232;-79
2022/12/07 06:39:32;;;;;;;2.30;1.20;;;;;;;2.69;91.16;101088.41;6062320;29;20218;-81
2022/12/07 06:42:53;;;;;;;1.00;1.00;;;;;;;2.75;91.58;101085.41;6059863;29;21694;-78
2022/12/07 06:46:16;;;;;;;1.40;1.30;;;;;;;2.79;91.35;101085.19;6047869;29;20687;-75
2022/12/07 06:49:37;;;;;;;3.40;1.40;;;;;;;2.82;91.41;101089.44;6060664;29;20249;-75
2022/12/07 06:52:58;;;;;;;3.03;1.60;;;;;;;2.78;91.56;101087.91;6057127;29;20236;-73
2022/12/07 06:56:20;;;;;;;2.47;1.63;;;;;;;2.82;91.90;101085.00;6049398;29;20690;-74
2022/12/07 06:59:41;;;;;;;1.47;1.37;;;;;;;2.75;92.16;101080.97;6050612;29;20230;-75
2022/12/07 07:03:03;;;;;;;1.10;1.00;;;;;;;2.79;92.55;101085.19;6051589;29;20241;-74
2022/12/07 07:06:24;;;;;;;4.83;1.47;;;;;;;2.78;92.39;101080.78;6054240;29;20244;-73
2022/12/07 07:09:45;;;;;;;0.90;0.90;;;;;;;2.77;92.85;101094.19;6059303;29;20363;-74
2022/12/07 07:13:06;;;;;;;2.80;1.57;;;;;;;2.73;92.83;101089.97;6052793;29;20805;-74
2022/12/07 07:16:27;;;;;;;1.23;1.13;;;;;;;2.73;92.91;101088.16;6044713;29;20233;-73
2022/12/07 07:19:50;;;;;;;1.10;0.93;;;;;;;2.73;93.10;101092.63;6051622;29;20458;-76
2022/12/07 07:23:11;;;;;;;1.27;1.17;;;;;;;2.79;93.22;101093.16;6055245;29;20620;-74
2022/12/07 07:26:32;;;;;;;1.70;1.60;;;;;;;2.85;92.64;101081.31;6051610;29;20237;-74
2022/12/07 07:29:53;;;;;;;1.53;1.13;;;;;;;2.79;92.47;101089.63;6060496;29;20261;-74
2022/12/07 07:33:14;;;;;;;1.20;1.20;;;;;;;2.76;92.74;101100.44;6050510;29;20237;-74
2022/12/07 07:36:37;;;;;;;1.10;0.90;;;;;;;2.85;92.53;101097.28;6047632;29;21500;-74
2022/12/07 07:39:58;;;;;;;1.33;1.23;;;;;;;2.89;92.14;101102.38;6061439;29;20233;-74
2022/12/07 07:43:18;;;;;;;0.87;0.87;;;;;;;2.90;91.85;101103.25;6064332;29;20626;-72
2022/12/07 07:46:40;;;;;;;0.70;0.60;;;;;;;2.87;92.09;101109.59;6044527;29;20248;-73
2022/12/07 07:50:01;;;;;;;2.50;1.40;;;;;;;2.92;91.98;101110.19;6057289;29;20230;-72
2022/12/07 07:53:24;;;;;;;1.47;1.13;;;;;;;2.90;91.54;101108.56;6061806;29;20234;-78
2022/12/07 07:56:45;;;;;;;0.97;0.93;;;;;;;2.90;91.70;101112.06;6061787;29;20240;-72
2022/12/07 08:00:09;;;;;;;1.70;1.40;;;;;;;3.01;91.86;101114.16;6065615;29;20269;-73
2022/12/07 08:03:36;;;;;;;1.07;0.97;;;;;;;3.02;90.90;101108.75;6064052;29;20236;-75
2022/12/07 08:06:57;;;;;;;1.40;1.30;;;;;;;3.07;91.02;101109.34;6065412;29;20622;-74
2022/12/07 08:10:20;;;;;;;3.10;1.00;;;;;;;3.03;91.34;101123.78;6063664;29;20237;-74
2022/12/07 08:13:40;;;;;;;2.23;1.00;;;;;;;3.03;91.25;101113.13;6064074;29;20706;-74
2022/12/07 08:17:02;;;;;;;4.53;1.00;;;;;;;3.13;90.99;101114.34;6056942;29;20256;-77
2022/12/07 08:20:22;;;;;;;1.00;0.90;;;;;;;3.20;90.55;101110.41;6055917;29;20305;-74
2022/12/07 08:23:43;;;;;;;1.30;1.20;;;;;;;3.23;90.70;101112.91;6065882;29;20237;-75
2022/12/07 08:27:06;;;;;;;3.43;1.73;;;;;;;3.21;90.72;101111.28;6057857;29;20644;-76
2022/12/07 08:30:27;;;;;;;0.73;0.70;;;;;;;3.28;90.38;101112.66;6050912;29;20773;-74
2022/12/07 08:33:49;;;;;;;0.90;0.90;;;;;;;3.31;90.54;101108.97;6074072;29;20228;-76
2022/12/07 08:37:12;;;;;;;3.07;0.67;;;;;;;3.39;90.42;101112.94;6057439;29;20232;-75
2022/12/07 08:40:33;;;;;;;1.60;0.97;;;;;;;3.41;89.45;101116.38;6052581;29;20328;-75
2022/12/07 08:43:55;;;;;;;1.27;0.90;;;;;;;3.32;89.99;101110.69;6074102;29;21070;-78
2022/12/07 08:47:18;;;;;;;3.53;1.23;;;;;;;3.41;89.99;101112.84;6059740;29;20248;-79
2022/12/07 08:50:39;;;;;;;1.30;1.20;;;;;;;3.56;89.78;101115.50;6055085;29;20230;-78
2022/12/07 08:54:02;;;;;;;3.13;0.80;;;;;;;3.68;89.12;101108.63;6071702;29;20226;-75
2022/12/07 08:57:23;;;;;;;3.10;1.03;;;;;;;3.67;89.05;101107.75;6059527;29;20233;-74
2022/12/07 09:00:45;;;;;;;1.20;1.10;;;;;;;3.85;88.59;101113.84;6048135;29;20255;-72
2022/12/07 09:04:05;;;;;;;1.03;0.97;;;;;;;4.06;87.98;101120.63;6064923;29;20660;-74
2022/12/07 09:07:27;;;;;;;2.50;1.57;;;;;;;4.20;87.27;101117.13;6053187;29;20272;-73
2022/12/07 09:10:49;;;;;;;1.60;0.93;;;;;;;3.97;87.68;101118.47;6038462;29;20236;-75
2022/12/07 09:14:09;;;;;;;2.53;0.97;;;;;;;4.14;87.68;101125.50;6060285;29;20241;-75
2022/12/07 09:17:35;;;;;;;5.97;2.10;;;;;;;4.03;88.22;101123.44;6049868;29;20883;-72
2022/12/07 09:20:57;;;;;;;5.97;1.23;;;;;;;4.07;88.19;101127.66;6058190;29;20304;-76
2022/12/07 09:24:17;;;;;;;0.80;0.80;;;;;;;3.88;88.89;101122.53;6063973;29;20249;-77
2022/12/07 09:27:38;;;;;;;2.50;1.17;;;;;;;3.94;88.95;101124.00;6059748;29;20240;-74
2022/12/07 09:30:59;;;;;;;2.33;1.47;;;;;;;3.84;89.35;101115.66;6057660;29;20237;-74
2022/12/07 09:34:22;;;;;;;1.10;1.10;;;;;;;3.83;89.31;101123.75;6063092;29;20233;-79
2022/12/07 09:37:43;;;;;;;1.50;1.40;;;;;;;4.03;88.80;101112.78;6067854;29;20312;-73
2022/12/07 09:41:08;;;;;;;2.07;1.97;;;;;;;4.15;88.42;101119.22;6049467;29;20245;-73
2022/12/07 09:44:29;;;;;;;1.20;1.00;;;;;;;4.06;87.99;101115.28;6060180;29;20236;-74
2022/12/07 09:47:50;;;;;;;3.03;1.30;;;;;;;4.03;88.50;101118.13;6060642;29;20237;-72
2022/12/07 09:51:17;;;;;;;5.90;3.00;;;;;;;4.11;88.34;101118.53;6051076;29;20327;-71
2022/12/07 09:54:42;;;;;;;0.70;0.70;;;;;;;4.08;88.46;101118.72;6054965;29;21075;-74
2022/12/07 09:58:03;;;;;;;1.13;1.03;;;;;;;4.17;88.22;101122.66;6054304;29;20238;-77
2022/12/07 10:01:24;;;;;;;1.00;0.90;;;;;;;4.14;88.09;101109.50;6046008;29;20236;-74
2022/12/07 10:04:46;;;;;;;2.60;1.40;;;;;;;4.29;87.99;101108.59;6053744;29;20663;-74
2022/12/07 10:08:12;;;;;;;1.60;1.27;;;;;;;4.22;87.87;101107.22;6054005;29;20249;-71
2022/12/07 10:11:33;;;;;;;4.10;1.40;;;;;;;4.29;87.64;101109.47;6050296;29;20263;-73
2022/12/07 10:14:56;;;;;;;1.00;0.87;;;;;;;4.52;87.42;101100.09;6056402;29;20249;-74
2022/12/07 10:18:36;;;;;;;4.47;1.10;;;;;;;4.41;86.99;101102.53;6058844;29;20233;-73
2022/12/07 10:22:15;;;;;;;2.20;1.30;;;;;;;4.38;87.27;101098.22;6067806;29;20240;-75
2022/12/07 10:25:39;;;;;;;4.83;2.77;;;;;;;4.70;85.75;101096.28;6045677;29;20248;-79
2022/12/07 10:29:01;;;;;;;1.57;1.47;;;;;;;4.63;85.60;101102.97;6059393;29;20245;-79
2022/12/07 10:32:33;;;;;;;0.67;0.60;;;;;;;4.61;84.39;101104.88;6056909;29;21439;-80
2022/12/07 10:35:54;;;;;;;4.20;1.90;;;;;;;4.51;85.36;101098.34;6043995;29;20622;-73
2022/12/07 10:39:19;;;;;;;4.33;1.30;;;;;;;4.56;84.57;101113.16;6057688;29;20631;-75
2022/12/07 10:42:42;;;;;;;4.47;1.13;;;;;;;4.80;83.55;101090.28;6057638;29;20516;-72
2022/12/07 10:46:44;;;;;;;1.50;1.30;;;;;;;4.94;82.62;101099.28;6045073;29;20233;-74
2022/12/07 10:50:41;;;;;;;2.63;0.90;;;;;;;5.15;82.09;101098.81;6059449;29;20245;-79
2022/12/07 10:54:14;;;;;;;1.60;0.90;;;;;;;5.40;80.16;101095.44;6046691;29;20224;-72
2022/12/07 10:57:49;;;;;;;4.20;1.60;;;;;;;5.91;78.31;101092.06;6045901;29;20240;-76
2022/12/07 11:01:19;;;;;;;1.27;1.17;;;;;;;7.12;74.20;101087.19;6045332;29;20240;-77
2022/12/07 11:04:53;;;;;;;2.90;1.13;;;;;;;7.34;71.48;101075.78;6049361;29;20256;-77
2022/12/07 11:08:23;;;;;;;2.73;1.30;;;;;;;7.54;71.01;101071.63;6056525;29;20233;-76
2022/12/07 11:11:52;;;;;;;1.77;0.90;;;;;;;7.20;69.96;101065.19;6047374;29;20253;-77
2022/12/07 11:15:21;;;;;;;3.13;2.00;;;;;;;6.27;73.42;101076.22;6053394;29;20325;-76
2022/12/07 11:18:55;;;;;;;1.23;1.13;;;;;;;5.55;76.69;101073.03;6059771;29;20246;-77
2022/12/07 11:22:23;;;;;;;4.27;2.70;;;;;;;5.78;76.13;101075.06;6060803;29;20233;-77
2022/12/07 11:25:54;;;;;;;5.10;1.30;;;;;;;5.58;76.81;101072.84;6047340;29;21699;-76
2022/12/07 11:29:31;;;;;;;1.00;1.00;;;;;;;5.65;76.28;101061.63;6057899;29;20678;-77
2022/12/07 11:33:12;;;;;;;2.30;1.10;;;;;;;5.46;77.02;101065.63;6056240;29;20587;-77
2022/12/07 11:36:38;;;;;;;7.37;1.70;;;;;;;5.47;77.17;101064.66;6044792;29;20252;-76
2022/12/07 11:40:03;;;;;;;0.80;0.80;;;;;;;5.20;77.59;101061.06;6052661;29;20237;-76
2022/12/07 11:43:28;;;;;;;5.07;1.43;;;;;;;5.18;77.73;101054.97;6042223;29;20265;-77
2022/12/07 11:46:56;;;;;;;3.90;1.27;;;;;;;5.41;76.63;101054.34;6038651;29;20224;-74
2022/12/07 11:50:27;;;;;;;2.90;1.03;;;;;;;5.55;75.31;101044.47;6060064;29;20241;-75
2022/12/07 11:53:53;;;;;;;1.40;1.30;;;;;;;5.63;74.83;101054.69;6037342;29;20237;-75
2022/12/07 11:57:20;;;;;;;5.47;1.07;;;;;;;5.64;74.16;101053.72;6049963;29;20531;-74
2022/12/07 12:00:43;;;;;;;3.20;1.00;;;;;;;5.84;73.28;101047.09;6037519;29;21180;-76
2022/12/07 12:04:12;;;;;;;4.13;1.00;;;;;;;5.96;72.56;101035.56;6055587;29;20256;-75
2022/12/07 12:07:35;;;;;;;1.00;0.77;;;;;;;6.27;70.78;101041.44;6062556;29;20346;-76
2022/12/07 12:11:04;;;;;;;3.83;1.13;;;;;;;6.59;69.99;101038.34;6038416;29;20876;-76
2022/12/07 12:14:41;;;;;;;3.93;1.33;;;;;;;7.44;68.61;101044.66;6058365;29;20237;-77
2022/12/07 12:18:38;;;;;;;2.47;1.20;;;;;;;7.57;65.72;101041.94;6055509;29;20260;-77
2022/12/07 12:22:13;;;;;;;1.37;0.90;;;;;;;7.61;65.59;101048.78;6049048;29;20235;-75
2022/12/07 12:25:42;;;;;;;1.47;1.00;;;;;;;7.37;66.31;101039.81;6045779;29;20229;-77
2022/12/07 12:29:05;;;;;;;4.97;1.87;;;;;;;6.94;67.00;101042.06;6055806;29;20236;-75
2022/12/07 12:32:37;;;;;;;1.07;0.90;;;;;;;6.92;67.12;101049.38;6059889;29;20237;-74
2022/12/07 12:36:21;;;;;;;4.30;1.33;;;;;;;6.52;67.30;101037.91;6053514;29;20240;-75
2022/12/07 12:40:30;;;;;;;2.77;2.53;;;;;;;6.92;67.16;101035.97;6068025;29;20914;-75
2022/12/07 12:43:53;;;;;;;0.87;0.77;;;;;;;7.28;65.12;101023.44;6033424;29;20237;-77
2022/12/07 12:47:54;;;;;;;3.43;1.53;;;;;;;7.99;64.10;101030.66;6059126;29;20229;-76
2022/12/07 12:51:38;;;;;;;2.17;0.90;;;;;;;7.62;64.15;101016.47;6054870;29;20233;-76
2022/12/07 12:55:02;;;;;;;1.10;1.00;;;;;;;8.15;62.39;101024.97;6058649;29;20514;-77
2022/12/07 12:58:43;;;;;;;1.63;1.20;;;;;;;7.78;64.03;101034.97;6046618;29;20549;-77
2022/12/07 13:02:17;;;;;;;3.87;1.60;;;;;;;8.17;63.29;101041.84;6054606;29;20237;-77
2022/12/07 13:05:38;;;;;;;1.70;1.40;;;;;;;8.39;61.51;101032.03;6041991;29;20241;-76
2022/12/07 13:09:00;;;;;;;2.63;1.70;;;;;;;7.67;63.11;101025.03;6057893;29;20241;-79
2022/12/07 13:12:22;;;;;;;1.77;1.20;;;;;;;7.81;62.08;101037.41;6053076;29;20217;-79
2022/12/07 13:15:48;;;;;;;2.07;1.33;;;;;;;7.65;62.19;101024.28;6041453;29;20338;-79
2022/12/07 13:19:58;;;;;;;1.87;1.20;;;;;;;7.27;62.05;101031.59;6060664;29;20233;-81
2022/12/07 13:23:33;;;;;;;4.00;2.27;;;;;;;6.89;63.79;101038.84;6044387;29;20939;-80
2022/12/07 13:26:58;;;;;;;0.93;0.93;;;;;;;6.49;65.30;101034.59;6058027;29;20237;-80
2022/12/07 13:30:21;;;;;;;1.63;1.20;;;;;;;6.43;66.70;101033.19;6056280;29;20715;-80
2022/12/07 13:33:44;;;;;;;1.90;0.90;;;;;;;6.31;66.93;101040.25;6062034;29;20328;-78
2022/12/07 13:37:15;;;;;;;2.13;1.20;;;;;;;6.17;65.68;101042.16;6056575;29;20241;-78
2022/12/07 13:40:37;;;;;;;2.27;1.17;;;;;;;6.13;65.76;101048.69;6049648;29;20237;-78
2022/12/07 13:44:03;;;;;;;2.60;1.10;;;;;;;5.95;63.27;101040.06;6065361;29;20229;-79
2022/12/07 13:47:32;;;;;;;3.77;1.27;;;;;;;6.03;63.34;101043.06;6052955;29;20241;-79
2022/12/07 13:50:55;;;;;;;1.00;1.00;;;;;;;5.88;62.94;101048.63;6037971;29;20247;-80
2022/12/07 13:54:19;;;;;;;2.80;1.23;;;;;;;5.81;61.94;101039.25;6061759;29;20859;-80
2022/12/07 13:57:42;;;;;;;2.67;1.20;;;;;;;5.67;61.97;101045.50;6054960;29;20241;-80
2022/12/07 14:01:03;;;;;;;0.87;0.70;;;;;;;5.63;61.01;101047.50;6048971;29;20237;-81
2022/12/07 14:04:36;;;;;;;1.43;1.23;;;;;;;5.64;61.42;101059.06;6054969;29;20619;-80
2022/12/07 14:07:59;;;;;;;22.50;1.37;;;;;;;5.54;61.29;101056.16;6055680;29;20332;-78
2022/12/07 14:11:21;;;;;;;1.33;0.60;;;;;;;5.43;60.50;101053.31;6049933;29;20238;-80
2022/12/07 14:14:48;;;;;;;2.27;1.73;;;;;;;5.38;61.06;101046.56;6057950;29;20229;-79
2022/12/07 14:18:27;;;;;;;2.30;1.13;;;;;;;5.31;61.05;101045.22;6057694;29;20237;-79
2022/12/07 14:21:48;;;;;;;1.50;0.83;;;;;;;5.31;62.08;101046.09;6054494;29;20233;-79
2022/12/07 14:25:22;;;;;;;0.83;0.83;;;;;;;5.33;61.42;101046.84;6059316;29;20234;-80
2022/12/07 14:28:44;;;;;;;0.90;0.90;;;;;;;5.34;62.04;101047.72;6058505;29;20670;-80
2022/12/07 14:32:28;;;;;;;4.87;1.33;;;;;;;5.21;60.93;101052.97;6054716;29;20625;-81
2022/12/07 14:35:49;;;;;;;1.07;1.07;;;;;;;5.05;61.70;101056.72;6058126;29;20253;-80
2022/12/07 14:39:10;;;;;;;1.37;0.53;;;;;;;5.02;62.79;101052.44;6057113;29;20226;-81
2022/12/07 14:42:32;;;;;;;2.07;1.17;;;;;;;4.98;62.99;101056.25;6052115;29;20795;-80
2022/12/07 14:45:53;;;;;;;0.70;0.70;;;;;;;4.88;62.36;101039.94;6056151;29;20229;-80
2022/12/07 14:49:16;;;;;;;3.27;1.10;;;;;;;4.82;63.20;101044.78;6059635;29;20225;-80
2022/12/07 14:52:37;;;;;;;1.90;0.90;;;;;;;4.71;63.94;101049.97;6058241;29;20229;-81
2022/12/07 14:55:57;;;;;;;1.93;0.93;;;;;;;4.65;64.44;101053.84;6052277;29;20605;-80
2022/12/07 14:59:19;;;;;;;6.03;2.97;;;;;;;4.59;65.39;101053.38;6050520;29;20688;-80
2022/12/07 15:02:40;;;;;;;2.17;1.30;;;;;;;4.52;65.05;101047.56;6052081;29;20233;-79
2022/12/07 15:06:02;;;;;;;3.30;1.07;;;;;;;4.48;64.76;101051.38;6059653;29;20328;-79
2022/12/07 15:09:23;;;;;;;1.23;1.13;;;;;;;4.50;65.34;101060.16;6061010;29;20280;-80
2022/12/07 15:12:43;;;;;;;1.77;1.37;;;;;;;4.47;65.76;101060.31;6057534;29;21856;-81
2022/12/07 15:16:06;;;;;;;1.60;1.30;;;;;;;4.53;66.13;101057.28;6052866;29;20233;-81
2022/12/07 15:19:27;;;;;;;1.50;1.40;;;;;;;4.62;65.73;101059.38;6055043;29;20237;-78
2022/12/07 15:22:49;;;;;;;0.93;0.70;;;;;;;4.61;65.64;101055.00;6048402;29;20257;-79
2022/12/07 15:26:11;;;;;;;0.83;0.73;;;;;;;4.61;66.22;101052.31;6045172;29;20615;-79
2022/12/07 15:29:32;;;;;;;0.80;0.70;;;;;;;4.51;65.20;101059.19;6052613;29;20328;-80
2022/12/07 15:32:54;;;;;;;4.23;1.67;;;;;;;4.43;65.02;101060.59;6058319;29;20519;-80
2022/12/07 15:36:21;;;;;;;1.00;0.93;;;;;;;4.39;64.84;101067.94;6058755;29;20245;-80
2022/12/07 15:39:44;;;;;;;4.40;1.60;;;;;;;4.35;65.14;101062.88;6060432;29;20238;-80
2022/12/07 15:45:03;;;;;;;1.30;1.20;;;;;;;4.27;65.15;101063.34;6062705;29;20264;-78
2022/12/07 15:46:46;;;;;;;2.40;0.90;;;;;;;4.14;64.68;101059.69;6054377;29;20312;-78
2022/12/07 15:50:10;;;;;;;1.30;0.90;;;;;;;4.06;64.03;101053.94;6054531;29;20233;-79
2022/12/07 15:53:31;;;;;;;0.67;0.67;;;;;;;3.90;64.38;101043.31;6063860;29;20329;-78
2022/12/07 15:56:54;;;;;;;2.23;2.00;;;;;;;3.90;64.68;101048.63;6040701;29;20518;-79
2022/12/07 16:00:16;;;;;;;3.20;0.80;;;;;;;3.90;65.89;101051.31;6045370;29;20229;-78
2022/12/07 16:03:37;;;;;;;1.40;0.70;;;;;;;3.92;64.98;101049.41;6046157;29;20596;-79
2022/12/07 16:06:58;;;;;;;6.07;1.33;;;;;;;3.95;65.39;101045.72;6058738;29;20612;-79
2022/12/07 16:10:19;;;;;;;2.63;1.40;;;;;;;3.95;64.85;101051.03;6053099;29;20808;-77
2022/12/07 16:13:41;;;;;;;2.20;0.70;;;;;;;3.87;65.11;101039.97;6059212;29;20709;-79